createdAt,value
2023-05-21T00:02:20.076Z,0.10
2023-05-21T00:04:47.046Z,0.10
2023-05-21T00:07:15.371Z,0.20
2023-05-21T00:09:41.962Z,0.20
2023-05-21T00:12:08.947Z,0.10
2023-05-21T00:14:35.612Z,0.10
2023-05-21T00:17:02.142Z,0.10
2023-05-21T00:19:28.732Z,0.20
2023-05-21T00:21:56.070Z,0.20
2023-05-21T00:24:22.682Z,0.10
2023-05-21T00:26:49.168Z,0.20
2023-05-21T00:29:15.748Z,0.10
2023-05-21T00:31:42.280Z,0.17
2023-05-21T00:34:08.812Z,0.20
2023-05-21T00:36:35.698Z,0.10
2023-05-21T00:39:02.583Z,0.10
2023-05-21T00:41:30.311Z,0.10
2023-05-21T00:43:57.297Z,0.10
2023-05-21T00:46:24.215Z,0.10
2023-05-21T00:48:51.187Z,0.10
2023-05-21T00:51:18.757Z,0.10
2023-05-21T00:53:46.688Z,0.87
2023-05-21T00:56:13.507Z,0.10
2023-05-21T00:58:41.073Z,0.10
2023-05-21T01:01:13.878Z,0.10
2023-05-21T01:03:41.141Z,0.10
2023-05-21T01:06:08.848Z,0.10
2023-05-21T01:08:37.668Z,0.10
2023-05-21T01:11:06.479Z,0.70
2023-05-21T01:13:33.942Z,0.20
2023-05-21T01:16:01.353Z,0.10
2023-05-21T01:18:28.048Z,0.10
2023-05-21T01:20:55.250Z,0.43
2023-05-21T01:23:21.794Z,0.10
2023-05-21T01:25:48.346Z,0.20
2023-05-21T01:28:14.908Z,0.20
2023-05-21T01:30:41.891Z,0.00
2023-05-21T01:33:17.544Z,0.10
2023-05-21T01:35:53.393Z,0.10
2023-05-21T01:38:38.479Z,0.10
2023-05-21T01:41:10.335Z,0.08
2023-05-21T01:43:38.799Z,0.10
2023-05-21T01:46:05.867Z,0.20
2023-05-21T01:48:34.691Z,0.00
2023-05-21T01:51:02.593Z,2.30
2023-05-21T01:53:29.159Z,0.10
2023-05-21T01:55:55.945Z,0.10
2023-05-21T01:58:23.060Z,0.10
2023-05-21T02:00:51.203Z,0.43
2023-05-21T02:03:18.577Z,0.20
2023-05-21T02:05:45.415Z,0.10
2023-05-21T02:08:12.906Z,0.10
2023-05-21T02:10:39.404Z,0.10
2023-05-21T02:13:07.060Z,0.10
2023-05-21T02:15:36.449Z,0.10
2023-05-21T02:18:03.983Z,0.17
2023-05-21T02:20:31.060Z,1.03
2023-05-21T02:22:57.650Z,0.10
2023-05-21T02:25:24.194Z,0.30
2023-05-21T02:27:53.700Z,0.00
2023-05-21T02:30:20.851Z,0.10
2023-05-21T02:32:48.949Z,0.10
2023-05-21T02:35:15.883Z,0.13
2023-05-21T02:37:44.195Z,0.10
2023-05-21T02:40:11.535Z,0.10
2023-05-21T02:42:39.992Z,0.20
2023-05-21T02:45:08.112Z,0.20
2023-05-21T02:47:34.677Z,0.07
2023-05-21T02:50:01.999Z,0.10
2023-05-21T02:52:28.512Z,0.17
2023-05-21T02:54:55.039Z,0.10
2023-05-21T02:57:21.535Z,5.70
2023-05-21T02:59:48.089Z,1.80
2023-05-21T03:02:14.697Z,0.10
2023-05-21T03:04:46.610Z,0.20
2023-05-21T03:07:19.031Z,0.20
2023-05-21T03:09:45.981Z,0.16
2023-05-21T03:12:12.666Z,0.10
2023-05-21T03:14:39.234Z,0.10
2023-05-21T03:17:08.875Z,0.20
2023-05-21T03:19:36.533Z,0.20
2023-05-21T03:22:03.765Z,0.10
2023-05-21T03:24:33.261Z,0.10
2023-05-21T03:27:01.562Z,0.10
2023-05-21T03:29:28.560Z,0.10
2023-05-21T03:31:55.752Z,0.10
2023-05-21T03:34:22.515Z,0.10
2023-05-21T03:36:49.323Z,0.10
2023-05-21T03:39:15.918Z,0.23
2023-05-21T03:41:42.469Z,0.10
2023-05-21T03:44:09.148Z,0.10
2023-05-21T03:46:35.944Z,0.10
2023-05-21T03:49:02.761Z,0.10
2023-05-21T03:51:30.504Z,0.20
2023-05-21T03:54:00.046Z,0.20
2023-05-21T03:56:26.952Z,0.20
2023-05-21T03:58:53.542Z,0.20
2023-05-21T04:01:20.082Z,0.10
2023-05-21T04:03:46.831Z,0.20
2023-05-21T04:06:13.879Z,0.20
2023-05-21T04:08:40.501Z,0.20
2023-05-21T04:11:07.106Z,0.20
2023-05-21T04:13:33.611Z,0.30
2023-05-21T04:16:00.287Z,0.20
2023-05-21T04:18:27.038Z,0.20
2023-05-21T04:20:53.999Z,0.63
2023-05-21T04:23:23.629Z,0.17
2023-05-21T04:25:51.045Z,0.20
2023-05-21T04:28:21.170Z,0.10
2023-05-21T04:30:48.108Z,0.33
2023-05-21T04:33:18.465Z,0.20
2023-05-21T04:35:47.404Z,0.10
2023-05-21T04:38:14.295Z,0.30
2023-05-21T04:40:40.796Z,0.20
2023-05-21T04:43:08.268Z,0.20
2023-05-21T04:45:35.170Z,0.20
2023-05-21T04:48:03.046Z,0.20
2023-05-21T04:50:30.873Z,0.20
2023-05-21T04:52:58.928Z,0.10
2023-05-21T04:55:26.039Z,0.20
2023-05-21T04:57:53.004Z,0.10
2023-05-21T05:00:19.796Z,0.20
2023-05-21T05:02:46.530Z,0.10
2023-05-21T05:05:13.135Z,0.10
2023-05-21T05:07:39.666Z,0.20
2023-05-21T05:10:06.415Z,0.17
2023-05-21T05:12:32.946Z,0.40
2023-05-21T05:14:59.445Z,0.20
2023-05-21T05:17:25.977Z,0.17
2023-05-21T05:19:53.262Z,1.13
2023-05-21T05:22:19.776Z,0.10
2023-05-21T05:24:46.377Z,0.10
2023-05-21T05:27:12.932Z,0.20
2023-05-21T05:29:39.424Z,0.10
2023-05-21T05:32:06.228Z,0.83
2023-05-21T05:34:35.662Z,0.30
2023-05-21T05:37:03.049Z,11.87
2023-05-21T05:39:29.658Z,10.70
2023-05-21T05:41:56.255Z,12.97
2023-05-21T05:44:22.826Z,10.50
2023-05-21T05:46:49.345Z,12.47
2023-05-21T05:49:15.996Z,10.03
2023-05-21T05:51:42.639Z,10.27
2023-05-21T05:54:09.181Z,12.00
2023-05-21T05:56:35.725Z,9.17
2023-05-21T05:59:02.254Z,11.10
2023-05-21T06:01:28.774Z,9.90
2023-05-21T06:03:55.336Z,12.00
2023-05-21T06:06:21.881Z,14.10
2023-05-21T06:08:48.782Z,14.00
2023-05-21T06:11:19.304Z,10.97
2023-05-21T06:13:46.271Z,12.60
2023-05-21T06:16:13.017Z,12.17
2023-05-21T06:18:39.613Z,10.47
2023-05-21T06:21:06.281Z,12.67
2023-05-21T06:23:32.869Z,11.73
2023-05-21T06:25:59.393Z,14.77
2023-05-21T06:28:25.928Z,11.20
2023-05-21T06:30:52.457Z,10.50
2023-05-21T06:33:19.080Z,10.73
2023-05-21T06:35:45.705Z,9.87
2023-05-21T06:38:12.247Z,9.63
2023-05-21T06:40:38.782Z,12.37
2023-05-21T06:43:05.491Z,14.40
2023-05-21T06:45:32.145Z,11.30
2023-05-21T06:47:58.684Z,9.60
2023-05-21T06:50:25.295Z,12.43
2023-05-21T06:52:51.842Z,17.20
2023-05-21T06:55:18.335Z,17.17
2023-05-21T06:57:44.932Z,16.80
2023-05-21T07:00:12.343Z,23.67
2023-05-21T07:02:38.926Z,10.27
2023-05-21T07:05:05.698Z,12.97
2023-05-21T07:07:32.227Z,13.00
2023-05-21T07:09:58.724Z,11.70
2023-05-21T07:12:25.191Z,12.23
2023-05-21T07:14:51.711Z,11.83
2023-05-21T07:17:18.213Z,12.77
2023-05-21T07:19:44.724Z,10.17
2023-05-21T07:22:12.703Z,9.87
2023-05-21T07:24:39.211Z,9.23
2023-05-21T07:27:17.748Z,10.60
2023-05-21T07:29:51.877Z,9.40
2023-05-21T07:32:18.442Z,10.93
2023-05-21T07:34:45.009Z,9.43
2023-05-21T07:37:11.613Z,11.50
2023-05-21T07:39:38.106Z,10.97
2023-05-21T07:42:04.858Z,9.53
2023-05-21T07:44:32.054Z,11.53
2023-05-21T07:46:58.620Z,9.30
2023-05-21T07:49:25.133Z,10.60
2023-05-21T07:51:51.790Z,9.60
2023-05-21T07:54:19.734Z,9.43
2023-05-21T07:56:46.396Z,9.07
2023-05-21T07:59:14.720Z,10.13
2023-05-21T08:01:42.091Z,11.20
2023-05-21T08:04:08.791Z,9.70
2023-05-21T08:06:35.450Z,8.73
2023-05-21T08:09:02.121Z,8.17
2023-05-21T08:11:28.794Z,8.80
2023-05-21T08:13:55.600Z,11.97
2023-05-21T08:16:23.477Z,9.93
2023-05-21T08:18:50.633Z,7.63
2023-05-21T08:21:17.345Z,9.77
2023-05-21T08:23:44.251Z,9.97
2023-05-21T08:26:10.765Z,8.67
2023-05-21T08:28:40.324Z,8.23
2023-05-21T08:31:06.912Z,7.77
2023-05-21T08:33:37.213Z,8.40
2023-05-21T08:36:04.573Z,7.43
2023-05-21T08:38:31.410Z,7.50
2023-05-21T08:40:58.625Z,10.33
2023-05-21T08:43:28.561Z,9.17
2023-05-21T08:45:56.357Z,8.90
2023-05-21T08:48:23.592Z,8.47
2023-05-21T08:50:54.005Z,7.43
2023-05-21T08:53:28.272Z,8.60
2023-05-21T08:55:56.344Z,7.73
2023-05-21T08:58:23.013Z,9.10
2023-05-21T09:00:49.683Z,10.43
2023-05-21T09:03:16.716Z,10.15
2023-05-21T09:05:43.709Z,8.93
2023-05-21T09:08:10.248Z,7.63
2023-05-21T09:10:38.578Z,10.07
2023-05-21T09:13:05.219Z,8.80
2023-05-21T09:15:32.567Z,10.40
2023-05-21T09:17:59.189Z,8.77
2023-05-21T09:20:26.724Z,9.38
2023-05-21T09:22:53.569Z,7.60
2023-05-21T09:25:24.344Z,8.68
2023-05-21T09:27:51.079Z,8.23
2023-05-21T09:30:20.863Z,11.45
2023-05-21T09:32:56.978Z,8.82
2023-05-21T09:35:23.498Z,9.77
2023-05-21T09:37:50.988Z,10.25
2023-05-21T09:40:18.638Z,11.38
2023-05-21T09:42:49.173Z,8.48
2023-05-21T09:45:22.576Z,10.05
2023-05-21T09:47:50.164Z,8.40
2023-05-21T09:50:20.986Z,13.13
2023-05-21T09:52:48.177Z,9.40
2023-05-21T09:55:24.891Z,8.09
2023-05-21T09:57:51.840Z,12.32
2023-05-21T10:00:20.203Z,16.63
2023-05-21T10:02:48.062Z,8.40
2023-05-21T10:05:17.842Z,10.00
2023-05-21T10:07:51.479Z,8.93
2023-05-21T10:10:19.497Z,12.60
2023-05-21T10:12:52.066Z,7.45
2023-05-21T10:15:21.035Z,8.32
2023-05-21T10:17:48.595Z,10.73
2023-05-21T10:20:16.089Z,11.57
2023-05-21T10:22:42.635Z,8.50
2023-05-21T10:25:09.648Z,7.90
2023-05-21T10:27:37.284Z,7.93
2023-05-21T10:30:04.901Z,9.10
2023-05-21T10:32:31.802Z,11.77
2023-05-21T10:35:00.048Z,8.38
2023-05-21T10:37:28.297Z,7.30
2023-05-21T10:39:55.818Z,8.32
2023-05-21T10:42:31.495Z,7.05
2023-05-21T10:45:01.076Z,10.70
2023-05-21T10:47:33.700Z,9.38
2023-05-21T10:50:18.721Z,7.47
2023-05-21T10:52:45.323Z,9.57
2023-05-21T10:55:11.877Z,6.38
2023-05-21T10:57:40.166Z,5.53
2023-05-21T11:00:08.189Z,6.25
2023-05-21T11:02:34.911Z,6.45
2023-05-21T11:05:01.868Z,6.22
2023-05-21T11:07:46.883Z,5.20
2023-05-21T11:10:36.248Z,6.40
2023-05-21T11:13:13.626Z,5.40
2023-05-21T11:16:12.750Z,9.02
2023-05-21T11:18:39.326Z,5.55
2023-05-21T11:21:06.380Z,5.35
2023-05-21T11:23:51.334Z,6.15
2023-05-21T11:26:18.848Z,6.00
2023-05-21T11:28:45.466Z,7.93
2023-05-21T11:31:27.416Z,6.03
2023-05-21T11:34:09.210Z,7.82
2023-05-21T11:36:37.569Z,5.45
2023-05-21T11:39:13.809Z,5.32
2023-05-21T11:42:09.865Z,6.18
2023-05-21T11:44:46.278Z,5.85
2023-05-21T11:47:15.220Z,6.28
2023-05-21T11:49:42.480Z,8.50
2023-05-21T11:52:12.302Z,7.45
2023-05-21T11:55:05.391Z,5.38
2023-05-21T11:57:38.250Z,8.15
2023-05-21T12:00:14.269Z,5.70
2023-05-21T12:02:47.936Z,4.75
2023-05-21T12:05:14.634Z,6.85
2023-05-21T12:07:41.164Z,6.13
2023-05-21T12:10:09.450Z,6.17
2023-05-21T12:12:46.111Z,9.65
2023-05-21T12:15:20.394Z,8.55
2023-05-21T12:17:49.569Z,11.60
2023-05-21T12:20:16.579Z,16.73
2023-05-21T12:22:47.451Z,7.03
2023-05-21T12:25:20.676Z,7.60
2023-05-21T12:27:48.467Z,7.07
2023-05-21T12:30:15.075Z,6.93
2023-05-21T12:32:50.867Z,6.57
2023-05-21T12:35:21.662Z,7.55
2023-05-21T12:37:48.457Z,6.20
2023-05-21T12:40:15.072Z,6.57
2023-05-21T12:42:41.727Z,6.38
2023-05-21T12:45:08.829Z,7.07
2023-05-21T12:47:35.750Z,7.38
2023-05-21T12:50:03.956Z,6.30
2023-05-21T12:52:35.599Z,5.47
2023-05-21T12:55:02.198Z,8.45
2023-05-21T12:57:35.398Z,6.07
2023-05-21T13:00:02.624Z,4.72
2023-05-21T13:02:31.008Z,5.45
2023-05-21T13:05:04.652Z,6.63
2023-05-21T13:07:31.881Z,5.10
2023-05-21T13:09:58.983Z,5.40
2023-05-21T13:12:27.241Z,6.55
2023-05-21T13:14:54.941Z,6.63
2023-05-21T13:17:21.708Z,5.60
2023-05-21T13:20:12.749Z,5.22
2023-05-21T13:22:42.644Z,9.18
2023-05-21T13:25:11.197Z,4.78
2023-05-21T13:27:38.123Z,5.63
2023-05-21T13:30:06.034Z,5.43
2023-05-21T13:32:32.571Z,6.28
2023-05-21T13:34:59.176Z,7.43
2023-05-21T13:37:26.166Z,5.57
2023-05-21T13:39:52.701Z,8.57
2023-05-21T13:42:19.813Z,5.10
2023-05-21T13:44:46.732Z,6.75
2023-05-21T13:47:13.304Z,5.97
2023-05-21T13:49:40.047Z,5.15
2023-05-21T13:52:07.617Z,8.07
2023-05-21T13:54:34.611Z,5.18
2023-05-21T13:57:01.289Z,4.82
2023-05-21T13:59:27.794Z,5.20
2023-05-21T14:01:54.365Z,3.95
2023-05-21T14:04:21.285Z,4.65
2023-05-21T14:06:47.887Z,4.85
2023-05-21T14:09:14.740Z,6.57
2023-05-21T14:11:41.556Z,3.78
2023-05-21T14:14:08.025Z,3.70
2023-05-21T14:16:34.621Z,4.55
2023-05-21T14:19:03.827Z,5.77
2023-05-21T14:21:31.745Z,4.13
2023-05-21T14:23:58.279Z,5.93
2023-05-21T14:26:24.741Z,3.20
2023-05-21T14:28:51.249Z,4.55
2023-05-21T14:31:17.724Z,3.05
2023-05-21T14:33:44.298Z,3.22
2023-05-21T14:36:11.309Z,7.15
2023-05-21T14:38:37.824Z,4.72
2023-05-21T14:41:04.448Z,4.35
2023-05-21T14:43:31.143Z,5.03
2023-05-21T14:45:57.698Z,2.03
2023-05-21T14:48:24.579Z,3.05
2023-05-21T14:50:51.501Z,2.55
2023-05-21T14:53:18.164Z,4.60
2023-05-21T14:55:44.769Z,3.17
2023-05-21T14:58:11.411Z,3.83
2023-05-21T15:00:38.122Z,5.05
2023-05-21T15:03:05.253Z,6.65
2023-05-21T15:05:31.873Z,3.78
2023-05-21T15:07:58.423Z,4.05
2023-05-21T15:10:25.875Z,3.85
2023-05-21T15:12:52.622Z,4.95
2023-05-21T15:15:21.038Z,3.67
2023-05-21T15:17:48.061Z,4.10
2023-05-21T15:20:14.870Z,3.70
2023-05-21T15:22:41.389Z,2.87
2023-05-21T15:25:08.159Z,2.15
2023-05-21T15:27:34.877Z,2.20
2023-05-21T15:30:01.834Z,4.60
2023-05-21T15:32:31.704Z,3.25
2023-05-21T15:34:58.456Z,2.67
2023-05-21T15:37:25.356Z,3.17
2023-05-21T15:39:53.436Z,4.78
2023-05-21T15:42:19.954Z,2.40
2023-05-21T15:44:46.661Z,3.40
2023-05-21T15:47:13.257Z,2.47
2023-05-21T15:49:39.838Z,2.47
2023-05-21T15:52:06.689Z,3.47
2023-05-21T15:54:33.191Z,4.00
2023-05-21T15:56:59.724Z,4.13
2023-05-21T15:59:27.550Z,2.72
2023-05-21T16:01:55.329Z,4.78
2023-05-21T16:04:21.877Z,3.73
2023-05-21T16:06:48.463Z,3.42
2023-05-21T16:09:15.556Z,2.75
2023-05-21T16:11:44.761Z,2.60
2023-05-21T16:14:11.697Z,4.65
2023-05-21T16:16:38.713Z,4.13
2023-05-21T16:19:05.397Z,5.50
2023-05-21T16:21:32.394Z,3.90
2023-05-21T16:23:59.006Z,4.53
2023-05-21T16:26:25.817Z,3.43
2023-05-21T16:28:52.294Z,4.10
2023-05-21T16:31:18.864Z,4.23
2023-05-21T16:33:45.385Z,5.63
2023-05-21T16:36:11.959Z,4.47
2023-05-21T16:38:38.747Z,5.67
2023-05-21T16:41:05.254Z,6.07
2023-05-21T16:43:31.806Z,6.67
2023-05-21T16:45:58.412Z,4.25
2023-05-21T16:48:24.957Z,4.00
2023-05-21T16:50:51.421Z,6.10
2023-05-21T16:53:17.921Z,6.97
2023-05-21T16:55:44.467Z,4.47
2023-05-21T16:58:13.525Z,3.10
2023-05-21T17:00:40.079Z,3.05
2023-05-21T17:03:06.873Z,2.93
2023-05-21T17:05:33.572Z,5.23
2023-05-21T17:08:00.269Z,5.57
2023-05-21T17:10:27.583Z,5.83
2023-05-21T17:12:54.216Z,4.90
2023-05-21T17:15:20.997Z,7.00
2023-05-21T17:17:47.610Z,5.17
2023-05-21T17:20:14.497Z,4.77
2023-05-21T17:22:41.133Z,4.53
2023-05-21T17:25:08.067Z,6.07
2023-05-21T17:27:34.627Z,7.30
2023-05-21T17:30:01.233Z,4.33
2023-05-21T17:32:27.824Z,4.20
2023-05-21T17:34:54.417Z,5.70
2023-05-21T17:37:20.923Z,5.07
2023-05-21T17:39:47.402Z,5.93
2023-05-21T17:42:13.927Z,4.93
2023-05-21T17:44:40.520Z,5.30
2023-05-21T17:47:07.248Z,4.87
2023-05-21T17:49:33.827Z,4.10
2023-05-21T17:52:00.750Z,3.30
2023-05-21T17:54:29.763Z,5.63
2023-05-21T17:56:57.732Z,7.80
2023-05-21T17:59:24.252Z,4.40
2023-05-21T18:01:50.908Z,7.73
2023-05-21T18:04:17.450Z,9.30
2023-05-21T18:06:44.236Z,6.83
2023-05-21T18:09:13.217Z,10.03
2023-05-21T18:11:42.405Z,10.37
2023-05-21T18:14:09.932Z,7.37
2023-05-21T18:16:36.581Z,7.30
2023-05-21T18:19:05.956Z,9.20
2023-05-21T18:21:34.124Z,7.57
2023-05-21T18:24:00.844Z,5.70
2023-05-21T18:26:27.397Z,5.30
2023-05-21T18:28:54.006Z,8.80
2023-05-21T18:31:20.701Z,10.63
2023-05-21T18:33:47.291Z,5.93
2023-05-21T18:36:13.878Z,6.93
2023-05-21T18:38:40.559Z,4.93
2023-05-21T18:41:07.771Z,7.90
2023-05-21T18:43:34.552Z,6.77
2023-05-21T18:46:01.313Z,6.50
2023-05-21T18:48:27.914Z,4.73
2023-05-21T18:50:54.713Z,9.73
2023-05-21T18:53:21.363Z,5.67
2023-05-21T18:55:47.934Z,10.67
2023-05-21T18:58:14.486Z,15.00
2023-05-21T19:00:46.993Z,17.60
2023-05-21T19:03:13.526Z,14.27
2023-05-21T19:05:40.172Z,15.27
2023-05-21T19:08:06.788Z,9.60
2023-05-21T19:10:33.328Z,10.40
2023-05-21T19:12:59.916Z,6.90
2023-05-21T19:15:26.483Z,4.87
2023-05-21T19:17:53.034Z,6.87
2023-05-21T19:20:27.192Z,4.43
2023-05-21T19:22:54.271Z,6.03
2023-05-21T19:25:20.847Z,5.53
2023-05-21T19:27:47.616Z,8.10
2023-05-21T19:30:14.167Z,7.20
2023-05-21T19:32:40.832Z,7.87
2023-05-21T19:35:07.592Z,5.57
2023-05-21T19:37:34.134Z,6.57
2023-05-21T19:40:00.733Z,5.93
2023-05-21T19:42:27.370Z,6.97
2023-05-21T19:44:53.850Z,6.67
2023-05-21T19:47:20.528Z,7.50
2023-05-21T19:49:47.458Z,9.07
2023-05-21T19:52:14.014Z,7.20
2023-05-21T19:54:40.575Z,6.07
2023-05-21T19:57:10.888Z,5.87
2023-05-21T19:59:38.815Z,9.03
2023-05-21T20:02:05.464Z,8.00
2023-05-21T20:04:32.501Z,6.33
2023-05-21T20:06:58.982Z,5.63
2023-05-21T20:09:25.667Z,8.03
2023-05-21T20:11:52.239Z,6.97
2023-05-21T20:14:18.731Z,8.70
2023-05-21T20:16:47.128Z,6.60
2023-05-21T20:19:15.385Z,5.63
2023-05-21T20:21:42.271Z,9.33
2023-05-21T20:24:08.931Z,5.80
2023-05-21T20:26:36.559Z,5.43
2023-05-21T20:29:03.138Z,9.83
2023-05-21T20:31:29.804Z,9.43
2023-05-21T20:33:56.365Z,6.40
2023-05-21T20:36:24.025Z,7.23
2023-05-21T20:38:50.580Z,8.83
2023-05-21T20:41:17.155Z,5.70
2023-05-21T20:43:45.859Z,10.67
2023-05-21T20:46:12.506Z,8.73
2023-05-21T20:48:44.421Z,6.05
2023-05-21T20:51:11.196Z,5.97
2023-05-21T20:53:37.682Z,10.23
2023-05-21T20:56:08.158Z,8.10
2023-05-21T20:58:34.999Z,6.77
2023-05-21T21:01:01.845Z,7.57
2023-05-21T21:03:29.858Z,5.83
2023-05-21T21:05:58.030Z,6.70
2023-05-21T21:08:24.571Z,6.17
2023-05-21T21:10:51.152Z,8.27
2023-05-21T21:13:17.639Z,5.90
2023-05-21T21:15:44.297Z,6.97
2023-05-21T21:18:12.600Z,5.30
2023-05-21T21:20:39.715Z,6.63
2023-05-21T21:23:06.549Z,6.20
2023-05-21T21:25:33.215Z,5.67
2023-05-21T21:27:59.931Z,5.43
2023-05-21T21:30:26.457Z,10.77
2023-05-21T21:32:53.202Z,6.20
2023-05-21T21:35:19.853Z,6.67
2023-05-21T21:37:46.630Z,6.53
2023-05-21T21:40:13.523Z,5.13
2023-05-21T21:42:40.037Z,5.57
2023-05-21T21:45:06.880Z,6.10
2023-05-21T21:47:33.731Z,6.63
2023-05-21T21:50:00.360Z,6.03
2023-05-21T21:52:29.798Z,5.20
2023-05-21T21:54:56.519Z,7.50
2023-05-21T21:57:24.250Z,8.17
2023-05-21T21:59:50.864Z,8.47
2023-05-21T22:02:18.107Z,9.77
2023-05-21T22:04:45.133Z,6.40
2023-05-21T22:07:18.078Z,9.23
2023-05-21T22:09:45.218Z,5.63
2023-05-21T22:12:12.149Z,6.10
2023-05-21T22:14:38.853Z,7.23
2023-05-21T22:17:08.414Z,6.95
2023-05-21T22:19:36.846Z,5.63
2023-05-21T22:22:04.539Z,7.73
2023-05-21T22:24:32.422Z,7.85
2023-05-21T22:26:59.821Z,9.20
2023-05-21T22:29:26.318Z,4.80
2023-05-21T22:31:52.829Z,8.50
2023-05-21T22:34:19.380Z,6.73
2023-05-21T22:36:46.469Z,7.13
2023-05-21T22:39:12.990Z,6.33
2023-05-21T22:41:39.526Z,8.47
2023-05-21T22:44:06.231Z,6.77
2023-05-21T22:46:35.395Z,6.73
2023-05-21T22:49:02.374Z,9.20
2023-05-21T22:51:34.199Z,7.53
2023-05-21T22:54:01.638Z,5.67
2023-05-21T22:56:28.237Z,8.60
2023-05-21T22:58:55.212Z,8.00
2023-05-21T23:01:21.763Z,7.53
2023-05-21T23:03:48.258Z,7.10
2023-05-21T23:06:14.883Z,6.23
2023-05-21T23:08:41.539Z,7.00
2023-05-21T23:11:08.016Z,8.83
2023-05-21T23:13:34.483Z,9.83
2023-05-21T23:16:01.100Z,8.47
2023-05-21T23:18:27.650Z,8.03
2023-05-21T23:20:54.161Z,8.97
2023-05-21T23:23:20.668Z,6.70
2023-05-21T23:25:47.159Z,8.90
2023-05-21T23:28:13.777Z,8.97
2023-05-21T23:30:40.630Z,5.73
2023-05-21T23:33:07.519Z,8.40
2023-05-21T23:35:34.096Z,7.57
2023-05-21T23:38:00.574Z,9.87
2023-05-21T23:40:27.096Z,10.50
2023-05-21T23:42:53.620Z,7.90
2023-05-21T23:45:20.326Z,10.37
2023-05-21T23:47:47.008Z,6.13
2023-05-21T23:50:13.546Z,6.27
2023-05-21T23:52:41.649Z,9.20
2023-05-21T23:55:08.441Z,6.70
2023-05-21T23:57:35.260Z,7.33
